[ ตารางข้อมูล ] [ Min-Max ] [ วันนี้4 ] [ วันนี้2 ] [ เทียบ3วัน A ] [ เทียบ4วัน B ]   

วันนี้2   [ ◀ ช่วงเก่ากว่า ] [ ช่วงที่ 275 ] [ ช่วงใหม่กว่า ▶ ] [ ล่าสุด ]    [ 3 ชั่วโมง ] [ 6 ชั่วโมง ] [ 12 ชั่วโมง ] [ 24 ชั่วโมง ]   วันนี้2

อุณภูมิตู้ Knockdown4529  ราย 3 ชั่วโมง  ที่วัดได้ ในช่วงวันเวลา 03/04/2026 (11:33) ถึง 03/04/2026 (14:33) 
ความชื้นในตู้ Knockdown4529  ราย 3 ชั่วโมง  ที่วัดได้ ในช่วงวันเวลา 03/04/2026 (11:33) ถึง 03/04/2026 (14:33) 

 
DS18B20SHTC3 
IDDate d/m/Y & Timedata1
สูง
data2
ต่ำ
data3
นอก
temp
pcb
hum
pcb
Time
 8443  03/04/2026 14:31:23  32.2  31.4  32.5  31.8  68.5  14:31 
 8442  03/04/2026 14:26:41  32.0  31.4  32.7  31.6  68.8  14:26 
 8441  03/04/2026 14:21:59  31.6  31.5  32.7  31.6  69.3  14:21 
 8440  03/04/2026 14:17:17  31.6  31.4  32.6  31.7  68.5  14:17 
 8439  03/04/2026 14:12:34  32.5  31.2  32.8  31.8  66.7  14:12 
 8438  03/04/2026 14:07:53  32.5  31.2  32.5  31.8  66.7  14:07 
 8437  03/04/2026 14:03:11  32.5  31.2  32.6  32.0  66.5  14:03 
 8436  03/04/2026 13:58:30  32.5  31.2  32.2  31.8  66.5  13:58 
 8435  03/04/2026 13:53:49  32.5  31.2  32.7  31.7  66.6  13:53 
 8434  03/04/2026 13:49:07  32.5  31.2  33.0  31.7  66.3  13:49 
 8433  03/04/2026 13:44:26  32.4  31.1  32.8  31.7  66.3  13:44 
 8432  03/04/2026 13:39:44  32.5  31.1  32.7  31.7  66.3  13:39 
 8431  03/04/2026 13:35:03  32.4  31.1  32.8  31.7  66.2  13:35 
 8430  03/04/2026 13:30:22  32.4  31.1  32.9  31.6  66.4  13:30 
 8429  03/04/2026 13:25:40  32.4  31.1  32.2  31.7  66.6  13:25 
 8428  03/04/2026 13:20:58  32.4  31.1  32.9  31.5  66.3  13:20 
 8427  03/04/2026 13:16:17  32.4  31.0  32.7  31.4  66.7  13:16 
 8426  03/04/2026 13:11:35  32.3  30.9  32.9  31.6  66.7  13:11 
 8425  03/04/2026 13:06:54  32.3  30.9  33.0  31.4  66.7  13:06 
 8424  03/04/2026 13:02:12  32.2  30.9  32.7  31.6  66.7  13:02 
 8423  03/04/2026 12:57:30  32.2  30.9  32.6  31.5  66.8  12:57 
 8422  03/04/2026 12:52:49  32.2  30.8  32.6  31.5  66.8  12:52 
 8421  03/04/2026 12:48:08  32.2  30.8  32.9  31.5  66.6  12:48 
 8420  03/04/2026 12:43:26  32.2  30.8  32.5  31.5  66.6  12:43 

Data every 5 minute.


ใช้เวลาประมวลผล 0.00185 วินาที